Time;durP1;ratioP1;P1;durP2;ratioP2;P2;SDS_P1;SDS_P2;PMS_P1;PMS_P2;Temp;Humidity;BMP_temperature;BMP_pressure;BME280_temperature;BME280_humidity;BME280_pressure;Samples;Min_cycle;Max_cycle;Signal;HPM_P1;HPM_P2
2022/10/15 00:00:29;;;;;;;0.20;0.00;;;18.10;99.90;;;;;;21055792;28;20399;-68
2022/10/15 00:10:35;;;;;;;0.20;0.00;;;18.10;99.90;;;;;;21055566;28;20420;-68
2022/10/15 00:20:42;;;;;;;0.20;0.10;;;18.20;99.90;;;;;;21055614;28;20432;-66
2022/10/15 00:30:47;;;;;;;0.20;0.00;;;18.20;99.90;;;;;;21021500;28;20428;-67
2022/10/15 00:40:50;;;;;;;0.20;0.00;;;18.10;99.90;;;;;;21054887;28;20848;-67
2022/10/15 00:50:56;;;;;;;0.20;0.00;;;18.10;99.90;;;;;;21054617;28;20398;-67
2022/10/15 01:01:00;;;;;;;0.20;0.00;;;18.00;99.90;;;;;;21051215;28;20398;-68
2022/10/15 01:11:17;;;;;;;0.20;0.00;;;18.10;99.90;;;;;;21051529;28;20396;-67
2022/10/15 01:21:28;;;;;;;0.20;0.00;;;18.00;99.90;;;;;;21051632;28;20402;-67
2022/10/15 01:31:40;;;;;;;0.20;0.00;;;18.00;99.90;;;;;;21049147;28;20424;-67
2022/10/15 01:41:48;;;;;;;0.20;0.00;;;17.90;99.90;;;;;;21050915;28;20406;-67
2022/10/15 01:51:54;;;;;;;0.20;0.00;;;17.90;99.90;;;;;;21051696;28;20416;-67
2022/10/15 02:01:58;;;;;;;0.20;0.00;;;18.00;99.90;;;;;;21048061;28;20398;-68
2022/10/15 02:12:12;;;;;;;0.20;0.10;;;17.80;99.90;;;;;;21053863;28;20397;-67
2022/10/15 02:22:19;;;;;;;0.20;0.00;;;17.90;99.90;;;;;;21062915;28;20405;-68
2022/10/15 02:32:27;;;;;;;0.20;0.00;;;17.80;99.90;;;;;;21063504;28;20428;-67
2022/10/15 02:42:30;;;;;;;0.20;0.00;;;17.70;99.90;;;;;;21064023;28;21000;-67
2022/10/15 02:52:35;;;;;;;0.20;0.00;;;17.60;99.90;;;;;;21062930;28;20425;-68
2022/10/15 03:02:39;;;;;;;0.20;0.00;;;17.70;99.90;;;;;;21062123;28;20410;-66
2022/10/15 03:12:44;;;;;;;0.20;0.00;;;17.70;99.90;;;;;;21060455;28;20449;-68
2022/10/15 03:22:48;;;;;;;0.20;0.10;;;17.60;99.90;;;;;;21061094;28;20410;-66
2022/10/15 03:32:53;;;;;;;0.20;0.10;;;17.50;99.90;;;;;;21059804;28;20485;-67
2022/10/15 03:42:57;;;;;;;0.20;0.00;;;17.50;99.90;;;;;;21058762;28;20413;-66
2022/10/15 03:53:04;;;;;;;0.20;0.00;;;17.50;99.90;;;;;;21059722;28;20489;-67
2022/10/15 04:03:08;;;;;;;0.20;0.00;;;17.30;99.90;;;;;;21055895;28;20409;-67
2022/10/15 04:13:13;;;;;;;0.20;0.00;;;17.30;99.90;;;;;;21054457;28;20391;-67
2022/10/15 04:23:17;;;;;;;0.20;0.10;;;17.20;99.90;;;;;;21035644;28;20394;-68
2022/10/15 04:33:22;;;;;;;0.20;0.00;;;16.80;99.90;;;;;;21053402;28;20416;-67
2022/10/15 04:43:27;;;;;;;0.20;0.00;;;16.70;99.90;;;;;;21052119;28;20406;-67
2022/10/15 04:53:32;;;;;;;0.20;0.00;;;16.70;99.90;;;;;;21053064;28;20394;-68
2022/10/15 05:03:36;;;;;;;0.20;0.10;;;16.70;99.90;;;;;;21051286;28;20424;-69
2022/10/15 05:13:46;;;;;;;0.20;0.10;;;16.70;99.90;;;;;;21050722;28;20507;-67
2022/10/15 05:23:50;;;;;;;0.20;0.00;;;16.70;99.90;;;;;;21051615;28;20398;-68
2022/10/15 05:33:56;;;;;;;0.20;0.00;;;16.60;99.90;;;;;;21049970;28;20436;-69
2022/10/15 05:43:59;;;;;;;0.20;0.10;;;16.60;99.90;;;;;;21050296;28;20402;-68
2022/10/15 05:54:04;;;;;;;0.20;0.10;;;16.70;99.90;;;;;;21048255;28;20413;-68
2022/10/15 06:04:09;;;;;;;0.20;0.10;;;16.70;99.90;;;;;;21048400;28;20406;-66
2022/10/15 06:14:14;;;;;;;0.20;0.00;;;16.60;99.90;;;;;;21041958;28;20470;-68
2022/10/15 06:24:18;;;;;;;0.20;0.10;;;16.80;99.90;;;;;;20965155;28;20423;-67
2022/10/15 06:34:23;;;;;;;0.20;0.00;;;17.10;99.90;;;;;;21027966;28;20420;-68
2022/10/15 06:44:26;;;;;;;0.20;0.00;;;17.30;99.90;;;;;;21046726;28;20402;-67
2022/10/15 06:54:31;;;;;;;0.20;0.00;;;17.50;99.90;;;;;;21046634;28;20390;-68
2022/10/15 07:04:35;;;;;;;0.20;0.00;;;17.60;99.90;;;;;;21057956;28;21066;-68
2022/10/15 07:14:40;;;;;;;0.20;0.00;;;18.10;99.90;;;;;;21059420;28;20394;-68
2022/10/15 07:24:45;;;;;;;0.20;0.00;;;18.40;99.90;;;;;;21058009;28;20465;-68
2022/10/15 07:34:50;;;;;;;0.20;0.00;;;18.90;99.90;;;;;;21058031;28;20398;-69
2022/10/15 07:44:53;;;;;;;0.20;0.00;;;19.50;99.90;;;;;;21058512;28;20413;-68
2022/10/15 10:28:51;;;;;;;0.20;0.00;;;24.20;99.90;;;;;;25523614;23;907380;-83
2022/10/15 10:39:24;;;;;;;0.20;0.00;;;24.50;99.90;;;;;;25640552;23;20428;-80
2022/10/15 10:49:33;;;;;;;0.20;0.00;;;25.40;99.90;;;;;;25637175;22;20380;-81
2022/10/15 10:59:44;;;;;;;0.20;0.00;;;25.70;99.90;;;;;;25635850;23;20489;-80
2022/10/15 11:10:00;;;;;;;0.20;0.00;;;26.40;99.90;;;;;;25612381;23;20363;-78
2022/10/15 11:20:14;;;;;;;0.20;0.00;;;26.60;99.90;;;;;;25609816;23;20379;-74
2022/10/15 11:30:49;;;;;;;0.20;0.00;;;26.90;99.90;;;;;;25634808;23;20356;-83
2022/10/15 11:41:07;;;;;;;0.20;0.00;;;27.30;99.90;;;;;;25611193;23;20399;-84
2022/10/15 11:51:24;;;;;;;0.20;0.00;;;27.10;99.90;;;;;;25636466;22;20423;-81
2022/10/15 12:01:34;;;;;;;0.20;0.00;;;27.20;99.90;;;;;;25639717;23;20376;-83
2022/10/15 12:11:47;;;;;;;0.20;0.00;;;27.50;99.90;;;;;;25638990;23;20370;-86
2022/10/15 12:22:07;;;;;;;0.20;0.00;;;27.40;99.90;;;;;;25608651;22;20427;-86
2022/10/15 12:32:23;;;;;;;0.20;0.00;;;28.20;99.90;;;;;;25637141;23;20363;-85
2022/10/15 12:42:29;;;;;;;0.20;0.00;;;28.40;99.90;;;;;;25613501;22;20400;-82
2022/10/15 12:52:56;;;;;;;0.20;0.00;;;28.60;99.90;;;;;;25611447;23;20466;-80
2022/10/15 13:03:14;;;;;;;0.20;0.00;;;28.80;99.90;;;;;;25636524;23;20530;-84
2022/10/15 13:13:22;;;;;;;0.20;0.00;;;28.30;99.90;;;;;;25639098;22;20356;-85
2022/10/15 13:23:28;;;;;;;0.20;0.00;;;28.20;99.90;;;;;;25612591;23;20452;-82
2022/10/15 13:33:41;;;;;;;0.20;0.00;;;28.70;99.90;;;;;;25612285;23;20364;-79
2022/10/15 13:43:53;;;;;;;0.20;0.00;;;29.20;99.90;;;;;;25634880;23;20392;-79
2022/10/15 13:54:00;;;;;;;0.20;0.00;;;29.30;99.90;;;;;;25631949;23;20371;-80
2022/10/15 14:04:04;;;;;;;0.20;0.00;;;29.60;99.90;;;;;;25611583;23;20396;-80
2022/10/15 14:14:31;;;;;;;0.20;0.00;;;29.90;99.90;;;;;;25643480;22;20443;-80
2022/10/15 14:24:35;;;;;;;0.20;0.00;;;29.50;99.90;;;;;;25640289;22;20505;-74
2022/10/15 14:34:40;;;;;;;0.20;0.00;;;29.50;99.90;;;;;;25616812;23;20399;-80
2022/10/15 14:44:46;;;;;;;0.20;0.00;;;29.50;99.90;;;;;;25636750;22;20871;-83
2022/10/15 14:55:01;;;;;;;6.10;5.50;;;29.60;99.90;;;;;;25604866;23;20436;-75
2022/10/15 15:05:17;;;;;;;0.20;0.00;;;29.20;99.90;;;;;;25605756;22;20459;-78
2022/10/15 15:15:24;;;;;;;0.20;0.00;;;28.40;99.90;;;;;;25632346;23;20371;-78
2022/10/15 15:25:32;;;;;;;0.20;0.00;;;27.10;99.90;;;;;;25635228;22;20442;-79
2022/10/15 15:35:49;;;;;;;0.20;0.00;;;26.90;99.90;;;;;;25609094;23;20364;-78
2022/10/15 15:45:53;;;;;;;0.20;0.00;;;25.80;99.90;;;;;;25633774;23;20453;-82
2022/10/15 15:55:58;;;;;;;0.20;0.00;;;25.60;99.90;;;;;;25609329;23;20472;-82
2022/10/15 16:06:04;;;;;;;0.20;0.00;;;24.90;99.90;;;;;;25632582;22;20447;-83
2022/10/15 16:16:09;;;;;;;0.20;0.00;;;25.10;99.90;;;;;;25633063;23;20441;-81
2022/10/15 16:26:13;;;;;;;0.20;0.08;;;24.60;99.90;;;;;;25637338;23;21126;-83
2022/10/15 16:36:18;;;;;;;0.20;0.00;;;24.20;99.90;;;;;;25636342;23;20376;-79
2022/10/15 16:46:22;;;;;;;0.20;0.00;;;24.00;99.90;;;;;;25637989;23;20396;-80
2022/10/15 16:56:29;;;;;;;0.20;0.00;;;23.80;99.90;;;;;;25608226;23;20368;-75
2022/10/15 17:06:33;;;;;;;0.20;0.00;;;23.80;99.90;;;;;;25611266;23;20435;-81
2022/10/15 17:16:40;;;;;;;0.20;0.00;;;23.60;99.90;;;;;;25610818;23;20444;-80
2022/10/15 17:26:46;;;;;;;0.20;0.00;;;23.50;99.90;;;;;;25637310;22;20443;-80
2022/10/15 17:36:52;;;;;;;0.20;0.00;;;23.10;99.90;;;;;;25610473;23;20367;-80
2022/10/15 17:46:56;;;;;;;0.20;0.00;;;23.30;99.90;;;;;;25610957;23;20384;-79
2022/10/15 17:57:01;;;;;;;0.20;0.00;;;22.90;99.90;;;;;;25636049;23;20473;-82
2022/10/15 18:07:06;;;;;;;0.20;0.00;;;22.80;99.90;;;;;;25627932;23;20456;-80
2022/10/15 18:17:11;;;;;;;0.20;0.00;;;23.20;99.90;;;;;;25631844;23;20409;-79
2022/10/15 18:27:15;;;;;;;0.20;0.00;;;23.20;99.90;;;;;;25636537;22;20395;-81
2022/10/15 18:37:20;;;;;;;0.20;0.00;;;23.20;99.90;;;;;;25639511;23;20972;-81
2022/10/15 18:47:23;;;;;;;0.20;0.00;;;23.20;99.90;;;;;;25629658;23;20364;-81
2022/10/15 18:57:30;;;;;;;0.20;0.00;;;23.10;99.90;;;;;;25610210;22;20459;-81
2022/10/15 19:07:34;;;;;;;0.20;0.00;;;22.90;99.90;;;;;;25643632;23;20391;-83
2022/10/15 19:17:39;;;;;;;0.20;0.00;;;22.80;99.90;;;;;;25640116;22;20431;-78
2022/10/15 19:27:43;;;;;;;0.20;0.00;;;22.80;99.90;;;;;;25640311;23;20480;-83
2022/10/15 19:37:48;;;;;;;0.20;0.00;;;22.80;99.90;;;;;;25638014;23;21049;-84
2022/10/15 19:47:51;;;;;;;0.20;0.00;;;22.70;99.90;;;;;;25637281;23;20395;-83
2022/10/15 19:57:56;;;;;;;0.20;0.00;;;22.90;99.90;;;;;;25637230;23;20436;-82
2022/10/15 20:08:00;;;;;;;0.20;0.10;;;22.80;99.90;;;;;;25611041;23;20411;-81
2022/10/15 20:18:05;;;;;;;0.20;0.00;;;22.60;99.90;;;;;;25636845;23;20435;-77
2022/10/15 20:28:09;;;;;;;0.20;0.00;;;22.20;99.90;;;;;;25635396;23;20392;-82
2022/10/15 20:38:15;;;;;;;0.20;0.00;;;21.80;99.90;;;;;;25636866;23;20440;-83
2022/10/15 20:48:22;;;;;;;0.20;0.00;;;21.40;99.90;;;;;;25605170;23;20510;-80
2022/10/15 20:58:27;;;;;;;0.20;0.00;;;21.30;99.90;;;;;;25637011;23;20375;-80
2022/10/15 21:08:31;;;;;;;0.20;0.00;;;21.00;99.90;;;;;;25634544;23;20372;-81
2022/10/15 21:18:37;;;;;;;0.20;0.00;;;20.80;99.90;;;;;;25632348;23;20363;-79
2022/10/15 21:28:41;;;;;;;0.20;0.00;;;20.60;99.90;;;;;;25631596;23;20401;-81
2022/10/15 21:38:47;;;;;;;0.20;0.00;;;20.50;99.90;;;;;;25582525;23;20374;-81
2022/10/15 21:48:52;;;;;;;0.20;0.00;;;20.50;99.90;;;;;;25633565;23;20529;-82
2022/10/15 21:58:58;;;;;;;0.20;0.00;;;20.40;99.90;;;;;;25610213;23;21104;-87
2022/10/15 22:09:02;;;;;;;0.20;0.00;;;20.40;99.90;;;;;;25581873;23;20387;-82
2022/10/15 22:19:08;;;;;;;0.20;0.00;;;20.30;99.90;;;;;;25613415;23;20395;-75
2022/10/15 22:29:17;;;;;;;0.20;0.00;;;20.30;99.90;;;;;;25641393;23;20473;-78
2022/10/15 22:39:23;;;;;;;0.20;0.00;;;20.10;99.90;;;;;;25642114;23;20467;-83
2022/10/15 22:49:26;;;;;;;0.20;0.00;;;20.20;99.90;;;;;;25643510;23;20462;-80
2022/10/15 22:59:31;;;;;;;0.20;0.00;;;20.20;99.90;;;;;;25619787;23;20528;-78
2022/10/15 23:09:35;;;;;;;0.20;0.00;;;20.20;99.90;;;;;;25616231;23;20372;-82
2022/10/15 23:19:41;;;;;;;0.20;0.00;;;20.10;99.90;;;;;;25641875;23;20422;-80
2022/10/15 23:29:44;;;;;;;0.20;0.00;;;20.00;99.90;;;;;;25620166;23;20375;-81
2022/10/15 23:40:00;;;;;;;0.20;0.00;;;19.80;99.90;;;;;;25642454;23;20382;-80
2022/10/15 23:50:04;;;;;;;0.20;0.10;;;19.70;99.90;;;;;;25642556;23;20463;-81
